sensor_id;sensor_type;location;lat;lon;timestamp;temperature;humidity
27506;DHT22;14939;43.596;1.320;2024-03-23T00:54:22;14.50;91.80
27506;DHT22;14939;43.596;1.320;2024-03-23T00:56:47;14.50;91.90
27506;DHT22;14939;43.596;1.320;2024-03-23T00:59:13;14.50;92.00
27506;DHT22;14939;43.596;1.320;2024-03-23T01:01:39;14.60;91.90
27506;DHT22;14939;43.596;1.320;2024-03-23T01:04:05;14.60;91.90
27506;DHT22;14939;43.596;1.320;2024-03-23T01:06:30;14.50;91.90
27506;DHT22;14939;43.596;1.320;2024-03-23T01:08:56;14.50;92.00
27506;DHT22;14939;43.596;1.320;2024-03-23T01:11:22;14.60;92.00
27506;DHT22;14939;43.596;1.320;2024-03-23T01:13:47;14.50;91.80
27506;DHT22;14939;43.596;1.320;2024-03-23T01:16:13;14.50;91.80
27506;DHT22;14939;43.596;1.320;2024-03-23T01:18:38;14.50;91.80
27506;DHT22;14939;43.596;1.320;2024-03-23T01:21:04;14.50;91.80
27506;DHT22;14939;43.596;1.320;2024-03-23T01:23:30;14.50;91.70
27506;DHT22;14939;43.596;1.320;2024-03-23T01:25:55;14.50;91.80
27506;DHT22;14939;43.596;1.320;2024-03-23T01:28:21;14.40;91.80
27506;DHT22;14939;43.596;1.320;2024-03-23T01:30:48;14.40;91.60
27506;DHT22;14939;43.596;1.320;2024-03-23T01:33:14;14.40;91.70
27506;DHT22;14939;43.596;1.320;2024-03-23T01:35:39;14.40;91.50
27506;DHT22;14939;43.596;1.320;2024-03-23T01:38:05;14.40;91.50
27506;DHT22;14939;43.596;1.320;2024-03-23T01:40:31;14.40;91.40
27506;DHT22;14939;43.596;1.320;2024-03-23T01:43:07;14.30;91.20
27506;DHT22;14939;43.596;1.320;2024-03-23T01:45:33;14.30;91.10
27506;DHT22;14939;43.596;1.320;2024-03-23T01:47:59;14.30;91.20
27506;DHT22;14939;43.596;1.320;2024-03-23T01:50:26;14.30;90.90
27506;DHT22;14939;43.596;1.320;2024-03-23T01:52:53;14.30;90.50
27506;DHT22;14939;43.596;1.320;2024-03-23T01:55:19;14.20;90.30
27506;DHT22;14939;43.596;1.320;2024-03-23T01:57:44;14.20;89.00
27506;DHT22;14939;43.596;1.320;2024-03-23T02:00:11;14.20;88.70
27506;DHT22;14939;43.596;1.320;2024-03-23T02:02:42;14.20;88.00
27506;DHT22;14939;43.596;1.320;2024-03-23T02:05:08;14.10;88.00
27506;DHT22;14939;43.596;1.320;2024-03-23T02:07:34;14.10;87.10
27506;DHT22;14939;43.596;1.320;2024-03-23T02:10:00;14.10;84.90
27506;DHT22;14939;43.596;1.320;2024-03-23T02:12:26;14.00;85.30
27506;DHT22;14939;43.596;1.320;2024-03-23T02:14:52;14.00;84.00
27506;DHT22;14939;43.596;1.320;2024-03-23T02:17:17;14.00;83.50
27506;DHT22;14939;43.596;1.320;2024-03-23T02:19:43;13.90;82.70
27506;DHT22;14939;43.596;1.320;2024-03-23T02:22:09;13.90;82.50
27506;DHT22;14939;43.596;1.320;2024-03-23T02:24:37;13.80;82.40
27506;DHT22;14939;43.596;1.320;2024-03-23T02:27:03;13.70;82.50
27506;DHT22;14939;43.596;1.320;2024-03-23T02:29:29;13.60;81.60
27506;DHT22;14939;43.596;1.320;2024-03-23T02:31:54;13.60;81.80
27506;DHT22;14939;43.596;1.320;2024-03-23T02:34:20;13.50;81.90
27506;DHT22;14939;43.596;1.320;2024-03-23T02:36:45;13.50;82.10
27506;DHT22;14939;43.596;1.320;2024-03-23T02:39:11;13.40;81.30
27506;DHT22;14939;43.596;1.320;2024-03-23T02:41:37;13.40;81.10
27506;DHT22;14939;43.596;1.320;2024-03-23T02:44:02;13.30;80.40
27506;DHT22;14939;43.596;1.320;2024-03-23T02:46:28;13.20;79.70
27506;DHT22;14939;43.596;1.320;2024-03-23T02:48:53;13.20;78.20
27506;DHT22;14939;43.596;1.320;2024-03-23T02:51:19;13.00;77.90
27506;DHT22;14939;43.596;1.320;2024-03-23T02:53:45;12.90;78.20
27506;DHT22;14939;43.596;1.320;2024-03-23T02:56:10;12.80;78.80
27506;DHT22;14939;43.596;1.320;2024-03-23T02:58:41;12.80;79.30
27506;DHT22;14939;43.596;1.320;2024-03-23T03:01:07;12.70;79.30
27506;DHT22;14939;43.596;1.320;2024-03-23T03:03:32;12.70;79.40
27506;DHT22;14939;43.596;1.320;2024-03-23T03:05:58;12.70;79.90
27506;DHT22;14939;43.596;1.320;2024-03-23T03:08:23;12.60;80.40
27506;DHT22;14939;43.596;1.320;2024-03-23T03:10:49;12.60;80.90
27506;DHT22;14939;43.596;1.320;2024-03-23T03:13:15;12.50;81.40
27506;DHT22;14939;43.596;1.320;2024-03-23T03:15:42;12.50;82.10
27506;DHT22;14939;43.596;1.320;2024-03-23T03:18:08;12.30;82.60
27506;DHT22;14939;43.596;1.320;2024-03-23T03:20:40;12.30;82.60
27506;DHT22;14939;43.596;1.320;2024-03-23T03:23:06;12.20;82.50
27506;DHT22;14939;43.596;1.320;2024-03-23T03:25:32;12.20;83.00
27506;DHT22;14939;43.596;1.320;2024-03-23T03:27:58;12.10;82.10
27506;DHT22;14939;43.596;1.320;2024-03-23T03:30:23;12.10;81.40
27506;DHT22;14939;43.596;1.320;2024-03-23T03:32:49;12.10;80.80
27506;DHT22;14939;43.596;1.320;2024-03-23T03:35:15;12.10;81.10
27506;DHT22;14939;43.596;1.320;2024-03-23T03:37:41;12.00;81.60
27506;DHT22;14939;43.596;1.320;2024-03-23T03:40:07;11.90;81.20
27506;DHT22;14939;43.596;1.320;2024-03-23T03:42:34;11.80;82.20
27506;DHT22;14939;43.596;1.320;2024-03-23T03:45:00;11.70;82.20
27506;DHT22;14939;43.596;1.320;2024-03-23T03:47:26;11.70;82.80
27506;DHT22;14939;43.596;1.320;2024-03-23T03:49:51;11.60;82.80
27506;DHT22;14939;43.596;1.320;2024-03-23T03:52:17;11.60;83.30
27506;DHT22;14939;43.596;1.320;2024-03-23T03:54:42;11.60;83.70
27506;DHT22;14939;43.596;1.320;2024-03-23T03:57:08;11.60;83.40
27506;DHT22;14939;43.596;1.320;2024-03-23T03:59:34;11.60;83.70
27506;DHT22;14939;43.596;1.320;2024-03-23T04:01:59;11.60;83.70
27506;DHT22;14939;43.596;1.320;2024-03-23T04:04:25;11.60;83.80
27506;DHT22;14939;43.596;1.320;2024-03-23T04:06:59;11.60;84.10
27506;DHT22;14939;43.596;1.320;2024-03-23T04:09:24;11.60;84.10
27506;DHT22;14939;43.596;1.320;2024-03-23T04:11:50;11.60;84.30
27506;DHT22;14939;43.596;1.320;2024-03-23T04:14:16;11.60;84.40
27506;DHT22;14939;43.596;1.320;2024-03-23T04:16:41;11.70;84.70
27506;DHT22;14939;43.596;1.320;2024-03-23T04:19:07;11.70;84.20
27506;DHT22;14939;43.596;1.320;2024-03-23T04:21:33;11.70;84.40
27506;DHT22;14939;43.596;1.320;2024-03-23T04:23:59;11.70;84.50
27506;DHT22;14939;43.596;1.320;2024-03-23T04:26:25;11.70;84.20
27506;DHT22;14939;43.596;1.320;2024-03-23T04:28:51;11.70;84.60
27506;DHT22;14939;43.596;1.320;2024-03-23T04:31:16;11.70;84.30
27506;DHT22;14939;43.596;1.320;2024-03-23T04:33:42;11.70;84.10
27506;DHT22;14939;43.596;1.320;2024-03-23T04:36:08;11.60;84.20
27506;DHT22;14939;43.596;1.320;2024-03-23T04:38:33;11.70;83.80
27506;DHT22;14939;43.596;1.320;2024-03-23T04:40:59;11.70;83.80
27506;DHT22;14939;43.596;1.320;2024-03-23T04:43:26;11.70;83.40
27506;DHT22;14939;43.596;1.320;2024-03-23T04:45:51;11.60;80.10
27506;DHT22;14939;43.596;1.320;2024-03-23T04:48:20;11.60;80.80
27506;DHT22;14939;43.596;1.320;2024-03-23T04:50:46;11.60;78.70
27506;DHT22;14939;43.596;1.320;2024-03-23T04:53:12;11.70;78.70
27506;DHT22;14939;43.596;1.320;2024-03-23T04:55:37;11.70;78.80
27506;DHT22;14939;43.596;1.320;2024-03-23T04:58:03;11.70;78.20
27506;DHT22;14939;43.596;1.320;2024-03-23T05:00:29;11.70;78.30
27506;DHT22;14939;43.596;1.320;2024-03-23T05:02:54;11.70;78.30
27506;DHT22;14939;43.596;1.320;2024-03-23T05:05:20;11.70;78.20
27506;DHT22;14939;43.596;1.320;2024-03-23T05:07:46;11.70;78.60
27506;DHT22;14939;43.596;1.320;2024-03-23T05:10:11;11.70;78.40
27506;DHT22;14939;43.596;1.320;2024-03-23T05:12:39;11.70;78.70
27506;DHT22;14939;43.596;1.320;2024-03-23T05:15:05;11.70;78.60
27506;DHT22;14939;43.596;1.320;2024-03-23T05:17:32;11.70;78.70
27506;DHT22;14939;43.596;1.320;2024-03-23T05:19:57;11.70;78.80
27506;DHT22;14939;43.596;1.320;2024-03-23T05:22:23;11.70;78.90
27506;DHT22;14939;43.596;1.320;2024-03-23T05:24:49;11.70;78.80
27506;DHT22;14939;43.596;1.320;2024-03-23T05:27:15;11.70;79.00
27506;DHT22;14939;43.596;1.320;2024-03-23T05:29:40;11.70;80.00
27506;DHT22;14939;43.596;1.320;2024-03-23T05:32:06;11.70;78.90
27506;DHT22;14939;43.596;1.320;2024-03-23T05:34:32;11.70;79.10
27506;DHT22;14939;43.596;1.320;2024-03-23T05:36:57;11.70;79.10
27506;DHT22;14939;43.596;1.320;2024-03-23T05:39:23;11.70;80.80
27506;DHT22;14939;43.596;1.320;2024-03-23T05:41:49;11.60;84.50
27506;DHT22;14939;43.596;1.320;2024-03-23T05:44:15;11.50;84.70
27506;DHT22;14939;43.596;1.320;2024-03-23T05:46:41;11.50;83.70
27506;DHT22;14939;43.596;1.320;2024-03-23T05:49:08;11.60;83.60
27506;DHT22;14939;43.596;1.320;2024-03-23T05:51:33;11.60;83.20
27506;DHT22;14939;43.596;1.320;2024-03-23T05:53:59;11.60;83.00
27506;DHT22;14939;43.596;1.320;2024-03-23T05:56:24;11.70;82.40
27506;DHT22;14939;43.596;1.320;2024-03-23T05:58:51;11.70;82.30
27506;DHT22;14939;43.596;1.320;2024-03-23T06:01:17;11.60;84.70
27506;DHT22;14939;43.596;1.320;2024-03-23T06:03:43;11.60;84.80
27506;DHT22;14939;43.596;1.320;2024-03-23T06:06:10;11.50;88.20
27506;DHT22;14939;43.596;1.320;2024-03-23T06:08:37;11.50;88.00
27506;DHT22;14939;43.596;1.320;2024-03-23T06:11:04;11.50;88.20
27506;DHT22;14939;43.596;1.320;2024-03-23T06:13:32;11.50;88.40
27506;DHT22;14939;43.596;1.320;2024-03-23T06:15:57;11.50;89.50
27506;DHT22;14939;43.596;1.320;2024-03-23T06:18:24;11.50;89.90
27506;DHT22;14939;43.596;1.320;2024-03-23T06:20:49;11.50;90.20
27506;DHT22;14939;43.596;1.320;2024-03-23T06:23:15;11.50;90.10
27506;DHT22;14939;43.596;1.320;2024-03-23T06:25:42;11.50;90.60
27506;DHT22;14939;43.596;1.320;2024-03-23T06:28:08;11.50;90.60
27506;DHT22;14939;43.596;1.320;2024-03-23T06:30:34;11.50;90.70
27506;DHT22;14939;43.596;1.320;2024-03-23T06:32:59;11.40;92.20
27506;DHT22;14939;43.596;1.320;2024-03-23T06:35:25;11.30;94.40
27506;DHT22;14939;43.596;1.320;2024-03-23T06:37:51;11.20;94.90
27506;DHT22;14939;43.596;1.320;2024-03-23T06:40:16;11.10;96.40
27506;DHT22;14939;43.596;1.320;2024-03-23T06:42:42;11.30;95.10
27506;DHT22;14939;43.596;1.320;2024-03-23T06:45:08;11.00;96.70
27506;DHT22;14939;43.596;1.320;2024-03-23T06:47:34;11.00;99.90
27506;DHT22;14939;43.596;1.320;2024-03-23T06:50:00;10.90;99.90
27506;DHT22;14939;43.596;1.320;2024-03-23T06:52:29;10.70;99.90
27506;DHT22;14939;43.596;1.320;2024-03-23T06:54:55;10.50;99.90
27506;DHT22;14939;43.596;1.320;2024-03-23T06:57:21;10.50;99.90
27506;DHT22;14939;43.596;1.320;2024-03-23T06:59:47;10.50;99.90
27506;DHT22;14939;43.596;1.320;2024-03-23T07:02:12;10.50;99.90
27506;DHT22;14939;43.596;1.320;2024-03-23T07:04:38;10.60;99.90
27506;DHT22;14939;43.596;1.320;2024-03-23T07:07:05;10.50;99.90
27506;DHT22;14939;43.596;1.320;2024-03-23T07:09:31;10.50;99.90
27506;DHT22;14939;43.596;1.320;2024-03-23T07:11:57;10.60;99.90
27506;DHT22;14939;43.596;1.320;2024-03-23T07:14:23;10.50;99.90
27506;DHT22;14939;43.596;1.320;2024-03-23T07:16:50;10.50;99.90
27506;DHT22;14939;43.596;1.320;2024-03-23T07:19:16;10.50;99.90
27506;DHT22;14939;43.596;1.320;2024-03-23T07:21:45;10.40;99.90
27506;DHT22;14939;43.596;1.320;2024-03-23T07:24:11;10.10;99.90
27506;DHT22;14939;43.596;1.320;2024-03-23T07:26:37;10.10;99.90
27506;DHT22;14939;43.596;1.320;2024-03-23T07:29:06;10.00;99.90
27506;DHT22;14939;43.596;1.320;2024-03-23T07:31:32;9.90;99.90
27506;DHT22;14939;43.596;1.320;2024-03-23T07:33:58;9.80;99.90
27506;DHT22;14939;43.596;1.320;2024-03-23T07:36:24;9.70;99.90
27506;DHT22;14939;43.596;1.320;2024-03-23T07:38:50;9.60;99.90
27506;DHT22;14939;43.596;1.320;2024-03-23T07:41:18;9.50;99.90
27506;DHT22;14939;43.596;1.320;2024-03-23T07:43:44;9.60;99.90
27506;DHT22;14939;43.596;1.320;2024-03-23T07:46:10;9.50;99.90
27506;DHT22;14939;43.596;1.320;2024-03-23T07:48:37;9.30;99.90
27506;DHT22;14939;43.596;1.320;2024-03-23T07:51:05;9.30;99.90
27506;DHT22;14939;43.596;1.320;2024-03-23T07:53:31;9.40;99.90
27506;DHT22;14939;43.596;1.320;2024-03-23T07:56:03;9.30;99.90
27506;DHT22;14939;43.596;1.320;2024-03-23T07:58:29;9.30;99.90
27506;DHT22;14939;43.596;1.320;2024-03-23T08:00:56;9.20;99.90
27506;DHT22;14939;43.596;1.320;2024-03-23T08:03:22;9.20;99.90
27506;DHT22;14939;43.596;1.320;2024-03-23T08:05:48;9.20;99.90
27506;DHT22;14939;43.596;1.320;2024-03-23T08:08:14;9.30;99.90
27506;DHT22;14939;43.596;1.320;2024-03-23T08:10:50;9.30;99.90
27506;DHT22;14939;43.596;1.320;2024-03-23T08:13:17;9.30;99.90
27506;DHT22;14939;43.596;1.320;2024-03-23T08:15:42;9.30;99.90
27506;DHT22;14939;43.596;1.320;2024-03-23T08:18:09;9.30;99.90
27506;DHT22;14939;43.596;1.320;2024-03-23T08:20:35;9.50;99.90
27506;DHT22;14939;43.596;1.320;2024-03-23T08:23:01;9.40;99.90
27506;DHT22;14939;43.596;1.320;2024-03-23T08:25:26;9.30;99.90
27506;DHT22;14939;43.596;1.320;2024-03-23T08:27:52;9.40;99.90
27506;DHT22;14939;43.596;1.320;2024-03-23T08:30:18;9.30;99.90
27506;DHT22;14939;43.596;1.320;2024-03-23T08:32:44;9.40;99.90
27506;DHT22;14939;43.596;1.320;2024-03-23T08:35:09;9.60;99.90
27506;DHT22;14939;43.596;1.320;2024-03-23T08:37:35;9.70;99.90
27506;DHT22;14939;43.596;1.320;2024-03-23T08:40:01;9.90;99.90
27506;DHT22;14939;43.596;1.320;2024-03-23T08:42:26;10.00;99.90
27506;DHT22;14939;43.596;1.320;2024-03-23T08:44:52;10.00;99.90
27506;DHT22;14939;43.596;1.320;2024-03-23T08:47:18;10.20;99.90
27506;DHT22;14939;43.596;1.320;2024-03-23T08:49:44;10.10;99.90
27506;DHT22;14939;43.596;1.320;2024-03-23T08:52:10;10.10;99.90
27506;DHT22;14939;43.596;1.320;2024-03-23T08:54:36;10.00;99.90
27506;DHT22;14939;43.596;1.320;2024-03-23T08:57:01;9.70;99.90
27506;DHT22;14939;43.596;1.320;2024-03-23T08:59:27;9.70;99.90
27506;DHT22;14939;43.596;1.320;2024-03-23T09:01:53;9.50;99.90
27506;DHT22;14939;43.596;1.320;2024-03-23T09:04:18;9.70;99.90
27506;DHT22;14939;43.596;1.320;2024-03-23T09:06:44;9.80;99.90
27506;DHT22;14939;43.596;1.320;2024-03-23T09:09:10;9.80;99.90
27506;DHT22;14939;43.596;1.320;2024-03-23T09:11:36;9.90;91.10
27506;DHT22;14939;43.596;1.320;2024-03-23T09:14:03;10.10;90.20
27506;DHT22;14939;43.596;1.320;2024-03-23T09:16:29;10.10;80.50
27506;DHT22;14939;43.596;1.320;2024-03-23T09:18:56;10.20;81.60
27506;DHT22;14939;43.596;1.320;2024-03-23T09:21:21;10.30;82.40
27506;DHT22;14939;43.596;1.320;2024-03-23T09:23:47;10.20;71.60
27506;DHT22;14939;43.596;1.320;2024-03-23T09:26:13;10.40;69.60
27506;DHT22;14939;43.596;1.320;2024-03-23T09:28:38;10.60;67.00
27506;DHT22;14939;43.596;1.320;2024-03-23T09:31:07;10.80;72.20
27506;DHT22;14939;43.596;1.320;2024-03-23T09:33:36;10.80;68.60
27506;DHT22;14939;43.596;1.320;2024-03-23T09:36:05;10.90;64.10
27506;DHT22;14939;43.596;1.320;2024-03-23T09:38:31;10.90;64.80
27506;DHT22;14939;43.596;1.320;2024-03-23T09:40:57;10.80;62.80
27506;DHT22;14939;43.596;1.320;2024-03-23T09:43:23;10.80;66.10
27506;DHT22;14939;43.596;1.320;2024-03-23T09:45:49;10.80;63.00
27506;DHT22;14939;43.596;1.320;2024-03-23T09:48:15;10.80;63.40
27506;DHT22;14939;43.596;1.320;2024-03-23T09:50:43;10.90;62.70
27506;DHT22;14939;43.596;1.320;2024-03-23T09:53:12;11.00;64.30
27506;DHT22;14939;43.596;1.320;2024-03-23T09:55:43;11.20;65.00
27506;DHT22;14939;43.596;1.320;2024-03-23T09:58:12;11.10;61.90
27506;DHT22;14939;43.596;1.320;2024-03-23T10:00:38;11.30;62.80
27506;DHT22;14939;43.596;1.320;2024-03-23T10:03:04;11.20;58.80
27506;DHT22;14939;43.596;1.320;2024-03-23T10:05:32;11.30;61.60
27506;DHT22;14939;43.596;1.320;2024-03-23T10:10:44;11.40;59.60
27506;DHT22;14939;43.596;1.320;2024-03-23T10:13:10;11.40;59.30
27506;DHT22;14939;43.596;1.320;2024-03-23T10:15:37;11.30;59.80
27506;DHT22;14939;43.596;1.320;2024-03-23T10:18:19;11.50;59.50
27506;DHT22;14939;43.596;1.320;2024-03-23T10:20:52;11.60;55.70
27506;DHT22;14939;43.596;1.320;2024-03-23T10:23:25;11.60;56.00
27506;DHT22;14939;43.596;1.320;2024-03-23T10:25:51;11.70;55.20
27506;DHT22;14939;43.596;1.320;2024-03-23T10:28:17;11.90;55.10
27506;DHT22;14939;43.596;1.320;2024-03-23T10:30:42;11.80;54.40
27506;DHT22;14939;43.596;1.320;2024-03-23T10:33:09;11.80;54.90
27506;DHT22;14939;43.596;1.320;2024-03-23T10:35:36;11.90;54.90
27506;DHT22;14939;43.596;1.320;2024-03-23T10:38:06;12.00;54.80
27506;DHT22;14939;43.596;1.320;2024-03-23T10:40:36;12.10;56.00
27506;DHT22;14939;43.596;1.320;2024-03-23T10:43:06;12.20;53.30
27506;DHT22;14939;43.596;1.320;2024-03-23T10:45:33;12.30;51.80
27506;DHT22;14939;43.596;1.320;2024-03-23T10:47:59;12.20;50.80
27506;DHT22;14939;43.596;1.320;2024-03-23T10:50:25;12.20;50.30
27506;DHT22;14939;43.596;1.320;2024-03-23T10:52:53;12.30;52.60
27506;DHT22;14939;43.596;1.320;2024-03-23T10:55:20;12.30;52.50
27506;DHT22;14939;43.596;1.320;2024-03-23T10:57:54;12.50;52.90
27506;DHT22;14939;43.596;1.320;2024-03-23T11:00:20;12.50;52.40
27506;DHT22;14939;43.596;1.320;2024-03-23T11:02:48;12.40;50.30
27506;DHT22;14939;43.596;1.320;2024-03-23T11:05:32;12.20;48.60
27506;DHT22;14939;43.596;1.320;2024-03-23T11:07:58;12.40;49.10
27506;DHT22;14939;43.596;1.320;2024-03-23T11:10:29;12.50;47.30
27506;DHT22;14939;43.596;1.320;2024-03-23T11:13:21;12.70;46.90
27506;DHT22;14939;43.596;1.320;2024-03-23T11:15:41;12.60;46.40
27506;DHT22;14939;43.596;1.320;2024-03-23T11:18:07;12.70;46.30
27506;DHT22;14939;43.596;1.320;2024-03-23T11:20:37;12.40;46.60
27506;DHT22;14939;43.596;1.320;2024-03-23T11:23:04;12.60;45.80
27506;DHT22;14939;43.596;1.320;2024-03-23T11:25:30;12.80;47.00
27506;DHT22;14939;43.596;1.320;2024-03-23T11:27:57;13.10;47.00
27506;DHT22;14939;43.596;1.320;2024-03-23T11:30:24;13.10;46.10
27506;DHT22;14939;43.596;1.320;2024-03-23T11:32:52;13.30;44.80
27506;DHT22;14939;43.596;1.320;2024-03-23T11:35:34;13.00;45.20
27506;DHT22;14939;43.596;1.320;2024-03-23T11:38:08;13.20;45.90
27506;DHT22;14939;43.596;1.320;2024-03-23T11:40:38;13.20;43.60
27506;DHT22;14939;43.596;1.320;2024-03-23T11:43:05;13.20;42.40
27506;DHT22;14939;43.596;1.320;2024-03-23T11:45:51;13.10;43.50
27506;DHT22;14939;43.596;1.320;2024-03-23T11:48:19;13.30;43.50
27506;DHT22;14939;43.596;1.320;2024-03-23T11:50:48;13.30;42.80
27506;DHT22;14939;43.596;1.320;2024-03-23T11:56:03;13.40;41.40
27506;DHT22;14939;43.596;1.320;2024-03-23T11:58:27;13.50;40.60
27506;DHT22;14939;43.596;1.320;2024-03-23T12:03:22;13.50;40.20
27506;DHT22;14939;43.596;1.320;2024-03-23T12:05:53;13.50;39.10
27506;DHT22;14939;43.596;1.320;2024-03-23T12:08:32;13.50;38.60
27506;DHT22;14939;43.596;1.320;2024-03-23T12:11:14;13.60;38.40
27506;DHT22;14939;43.596;1.320;2024-03-23T12:13:41;13.70;37.40
27506;DHT22;14939;43.596;1.320;2024-03-23T12:16:20;13.60;36.60
27506;DHT22;14939;43.596;1.320;2024-03-23T12:18:50;13.80;36.30
27506;DHT22;14939;43.596;1.320;2024-03-23T12:21:16;13.70;36.40
27506;DHT22;14939;43.596;1.320;2024-03-23T12:23:43;13.70;36.20
27506;DHT22;14939;43.596;1.320;2024-03-23T12:26:13;13.80;37.00
27506;DHT22;14939;43.596;1.320;2024-03-23T12:28:39;13.60;36.70
27506;DHT22;14939;43.596;1.320;2024-03-23T12:31:05;13.60;37.20
27506;DHT22;14939;43.596;1.320;2024-03-23T12:33:31;13.50;37.00
27506;DHT22;14939;43.596;1.320;2024-03-23T12:35:57;13.60;36.10
27506;DHT22;14939;43.596;1.320;2024-03-23T12:38:22;13.60;35.60
27506;DHT22;14939;43.596;1.320;2024-03-23T12:40:49;13.60;36.90
27506;DHT22;14939;43.596;1.320;2024-03-23T12:43:15;13.80;35.90
27506;DHT22;14939;43.596;1.320;2024-03-23T12:45:40;13.80;36.20
27506;DHT22;14939;43.596;1.320;2024-03-23T12:48:07;13.90;36.90
27506;DHT22;14939;43.596;1.320;2024-03-23T12:50:32;14.20;37.30
27506;DHT22;14939;43.596;1.320;2024-03-23T12:52:58;14.10;35.60
27506;DHT22;14939;43.596;1.320;2024-03-23T12:55:24;13.80;36.00
27506;DHT22;14939;43.596;1.320;2024-03-23T12:57:49;14.20;37.10
27506;DHT22;14939;43.596;1.320;2024-03-23T13:00:15;14.20;36.70
27506;DHT22;14939;43.596;1.320;2024-03-23T13:02:42;14.20;37.30
27506;DHT22;14939;43.596;1.320;2024-03-23T13:05:08;14.20;37.30
27506;DHT22;14939;43.596;1.320;2024-03-23T13:07:37;14.20;36.60
27506;DHT22;14939;43.596;1.320;2024-03-23T13:10:04;14.10;36.40
27506;DHT22;14939;43.596;1.320;2024-03-23T13:12:30;14.10;36.70
27506;DHT22;14939;43.596;1.320;2024-03-23T13:14:56;14.40;36.80
27506;DHT22;14939;43.596;1.320;2024-03-23T13:17:22;14.40;36.70
27506;DHT22;14939;43.596;1.320;2024-03-23T13:19:47;14.50;35.70
27506;DHT22;14939;43.596;1.320;2024-03-23T13:22:13;14.20;36.50
27506;DHT22;14939;43.596;1.320;2024-03-23T13:24:39;14.40;37.30
27506;DHT22;14939;43.596;1.320;2024-03-23T13:27:05;14.40;36.90
27506;DHT22;14939;43.596;1.320;2024-03-23T13:29:34;14.40;36.60
27506;DHT22;14939;43.596;1.320;2024-03-23T13:32:01;14.20;37.00
27506;DHT22;14939;43.596;1.320;2024-03-23T13:34:26;14.30;38.10
27506;DHT22;14939;43.596;1.320;2024-03-23T13:36:52;14.30;37.30
27506;DHT22;14939;43.596;1.320;2024-03-23T13:39:17;14.30;37.30
27506;DHT22;14939;43.596;1.320;2024-03-23T13:41:44;14.50;37.60
27506;DHT22;14939;43.596;1.320;2024-03-23T13:44:13;14.50;37.00
27506;DHT22;14939;43.596;1.320;2024-03-23T13:46:42;14.40;36.70
27506;DHT22;14939;43.596;1.320;2024-03-23T13:49:28;14.40;36.80
27506;DHT22;14939;43.596;1.320;2024-03-23T13:51:55;14.60;36.80
27506;DHT22;14939;43.596;1.320;2024-03-23T13:54:24;14.50;36.80
27506;DHT22;14939;43.596;1.320;2024-03-23T13:56:50;14.30;37.30
27506;DHT22;14939;43.596;1.320;2024-03-23T13:59:16;14.40;37.80
27506;DHT22;14939;43.596;1.320;2024-03-23T14:01:42;14.40;37.60
27506;DHT22;14939;43.596;1.320;2024-03-23T14:04:08;14.40;38.30
27506;DHT22;14939;43.596;1.320;2024-03-23T14:06:34;14.40;37.80
27506;DHT22;14939;43.596;1.320;2024-03-23T14:08:59;14.50;37.50
27506;DHT22;14939;43.596;1.320;2024-03-23T14:11:25;14.50;38.00
27506;DHT22;14939;43.596;1.320;2024-03-23T14:13:52;14.70;38.40
27506;DHT22;14939;43.596;1.320;2024-03-23T14:16:18;14.50;37.60
27506;DHT22;14939;43.596;1.320;2024-03-23T14:18:46;14.50;37.10
27506;DHT22;14939;43.596;1.320;2024-03-23T14:21:12;14.50;38.00
27506;DHT22;14939;43.596;1.320;2024-03-23T14:23:38;14.70;38.80
27506;DHT22;14939;43.596;1.320;2024-03-23T14:26:06;14.90;37.80
27506;DHT22;14939;43.596;1.320;2024-03-23T14:28:32;14.80;38.60
27506;DHT22;14939;43.596;1.320;2024-03-23T14:30:57;15.00;37.90
27506;DHT22;14939;43.596;1.320;2024-03-23T14:33:24;14.90;37.40
27506;DHT22;14939;43.596;1.320;2024-03-23T14:35:56;14.50;37.60
27506;DHT22;14939;43.596;1.320;2024-03-23T14:38:25;14.60;37.80
27506;DHT22;14939;43.596;1.320;2024-03-23T14:40:50;14.90;37.60
27506;DHT22;14939;43.596;1.320;2024-03-23T14:43:18;15.10;38.70
27506;DHT22;14939;43.596;1.320;2024-03-23T14:48:31;15.00;36.70
27506;DHT22;14939;43.596;1.320;2024-03-23T14:50:58;15.30;37.40
27506;DHT22;14939;43.596;1.320;2024-03-23T14:53:24;15.60;37.90
27506;DHT22;14939;43.596;1.320;2024-03-23T14:55:50;15.80;34.80
27506;DHT22;14939;43.596;1.320;2024-03-23T14:58:16;15.50;36.10
27506;DHT22;14939;43.596;1.320;2024-03-23T15:00:42;15.60;36.00
27506;DHT22;14939;43.596;1.320;2024-03-23T15:03:07;15.70;36.00
27506;DHT22;14939;43.596;1.320;2024-03-23T15:05:33;15.60;35.00
27506;DHT22;14939;43.596;1.320;2024-03-23T15:07:58;15.50;35.00
27506;DHT22;14939;43.596;1.320;2024-03-23T15:10:24;16.30;35.00
27506;DHT22;14939;43.596;1.320;2024-03-23T15:12:50;17.10;32.60
27506;DHT22;14939;43.596;1.320;2024-03-23T15:15:15;17.20;31.70
27506;DHT22;14939;43.596;1.320;2024-03-23T15:17:41;17.30;29.20
27506;DHT22;14939;43.596;1.320;2024-03-23T15:20:10;17.00;29.10
27506;DHT22;14939;43.596;1.320;2024-03-23T15:22:37;17.20;28.90
27506;DHT22;14939;43.596;1.320;2024-03-23T15:25:03;16.90;29.10
27506;DHT22;14939;43.596;1.320;2024-03-23T15:27:28;17.20;29.20
27506;DHT22;14939;43.596;1.320;2024-03-23T15:29:56;16.90;30.50
27506;DHT22;14939;43.596;1.320;2024-03-23T15:32:23;17.20;30.70
27506;DHT22;14939;43.596;1.320;2024-03-23T15:34:48;17.50;29.90
27506;DHT22;14939;43.596;1.320;2024-03-23T15:37:15;18.00;30.00
27506;DHT22;14939;43.596;1.320;2024-03-23T15:39:41;18.20;29.40
27506;DHT22;14939;43.596;1.320;2024-03-23T15:42:07;18.90;28.30
27506;DHT22;14939;43.596;1.320;2024-03-23T15:44:32;18.80;27.10
27506;DHT22;14939;43.596;1.320;2024-03-23T15:46:58;19.00;26.10
27506;DHT22;14939;43.596;1.320;2024-03-23T15:49:24;19.50;25.20
27506;DHT22;14939;43.596;1.320;2024-03-23T15:51:50;20.20;25.40
27506;DHT22;14939;43.596;1.320;2024-03-23T15:54:15;20.70;23.70
27506;DHT22;14939;43.596;1.320;2024-03-23T15:56:41;20.20;23.40
27506;DHT22;14939;43.596;1.320;2024-03-23T15:59:06;19.70;23.40
27506;DHT22;14939;43.596;1.320;2024-03-23T16:01:33;20.00;23.40
27506;DHT22;14939;43.596;1.320;2024-03-23T16:04:01;19.60;23.20
27506;DHT22;14939;43.596;1.320;2024-03-23T16:06:26;18.50;24.30
27506;DHT22;14939;43.596;1.320;2024-03-23T16:08:52;18.80;23.90
27506;DHT22;14939;43.596;1.320;2024-03-23T16:11:18;18.60;24.50
27506;DHT22;14939;43.596;1.320;2024-03-23T16:13:44;18.30;24.60
27506;DHT22;14939;43.596;1.320;2024-03-23T16:16:09;18.60;24.40
27506;DHT22;14939;43.596;1.320;2024-03-23T16:18:36;18.90;24.50
27506;DHT22;14939;43.596;1.320;2024-03-23T16:21:03;18.50;25.10
27506;DHT22;14939;43.596;1.320;2024-03-23T16:23:34;17.80;25.20
27506;DHT22;14939;43.596;1.320;2024-03-23T16:26:00;17.70;25.20
27506;DHT22;14939;43.596;1.320;2024-03-23T16:28:34;18.10;25.20
27506;DHT22;14939;43.596;1.320;2024-03-23T16:31:02;17.70;25.40
27506;DHT22;14939;43.596;1.320;2024-03-23T16:33:29;16.80;27.20